Flight Track Log - Related Links

Times and Time Zones

All times are in EDT time to prevent confusion due to time zone crossing. See the LBQ792 flight status page for this flight to view local times or setup timezone preferences in your user account.

Time Position Orientation Groundspeed Altitude Reporting Facility
EDT Latitude Longitude Course Direction KTS MPH feet Rate Location/Type
Wed 10:08:58 PM 43.1028 -76.0889 124° Southeast 105 121 1,500  Level Boston Center
Wed 10:09:59 PM 43.1364 -76.0825 North 173 199 2,900 1,537 Climbing Boston Center
Wed 10:10:59 PM 43.1836 -76.0994 345° North 190 219 4,600 1,537 Climbing Boston Center
Wed 10:12:00 PM 43.2306 -76.1336 332° Northwest 195 224 6,000 694 Climbing Boston Center
Wed 10:13:00 PM 43.2258 -76.2161 266° West 227 261 6,000  Level Boston Center
Wed 10:14:01 PM 43.2206 -76.3069 265° West 241 277 6,000  Level Boston Center
Wed 10:14:56 PM 43.2158 -76.3892 266° West 242 278 6,000  Level Boston Center
Wed 10:15:56 PM 43.2064 -76.4797 262° West 241 277 6,000  Level Boston Center
Wed 10:16:57 PM 43.2031 -76.5736 267° West 242 278 6,000  Level Boston Center
Wed 10:17:57 PM 43.1953 -76.6672 264° West 243 280 6,000  Level Boston Center
Wed 10:18:13 PM 43.1931 -76.6903 262° West 242 278 6,000  Level Cleveland Center
Wed 10:18:49 PM 43.1886 -76.7475 264° West 242 278 6,000  Level Cleveland Center
Wed 10:19:50 PM 43.1833 -76.8361 265° West 240 276 6,000  Level Cleveland Center
Wed 10:20:50 PM 43.1736 -76.9278 262° West 242 278 6,000  Level Cleveland Center
Wed 10:21:51 PM 43.1661 -77.0192 264° West 244 281 6,000  Level Cleveland Center
Wed 10:22:51 PM 43.1606 -77.1136 265° West 246 283 6,000 -248 Level Cleveland Center
Wed 10:23:52 PM 43.1381 -77.2003 250° West 247 284 5,500 -639 Descending Cleveland Center
Wed 10:24:53 PM 43.1031 -77.2847 240° Southwest 257 296 4,700 -744 Descending Cleveland Center
Wed 10:25:53 PM 43.0661 -77.3775 241° Southwest 253 291 4,000 -347 Descending Cleveland Center
Wed 10:26:54 PM 43.0328 -77.4531 239° Southwest 237 273 4,000 -198 Level Cleveland Center
Wed 10:27:54 PM 43.0014 -77.5342 242° Southwest 241 277 3,600 -645 Descending Cleveland Center
Wed 10:28:55 PM 42.9767 -77.6233 249° West 260 299 2,700 -563 Descending Cleveland Center
Wed 10:30:02 PM 42.9833 -77.7194 275° West 240 276 2,400 -142 Descending Cleveland Center
Wed 10:31:02 PM 43.0281 -77.7572 328° Northwest 219 252 2,400 -545 Level Cleveland Center
Wed 10:32:03 PM 43.0750 -77.7183 31° Northeast 178 205 1,300 -1,082 Descending Cleveland Center

Login

Don't have an account? Register now (free) for customized features, flight alerts, and more!